sensor_id;sensor_type;location;lat;lon;timestamp;P1;durP1;ratioP1;P2;durP2;ratioP2
58661;SDS011;44432;49.786;22.760;2023-05-10T00:01:03;19.80;;;11.90;;
58661;SDS011;44432;49.786;22.760;2023-05-10T00:03:34;21.20;;;12.20;;
58661;SDS011;44432;49.786;22.760;2023-05-10T00:06:04;21.40;;;12.40;;
58661;SDS011;44432;49.786;22.760;2023-05-10T00:08:35;22.70;;;12.10;;
58661;SDS011;44432;49.786;22.760;2023-05-10T00:11:06;22.20;;;12.70;;
58661;SDS011;44432;49.786;22.760;2023-05-10T00:13:36;23.40;;;12.70;;
58661;SDS011;44432;49.786;22.760;2023-05-10T00:16:07;24.90;;;12.80;;
58661;SDS011;44432;49.786;22.760;2023-05-10T00:18:39;22.60;;;13.40;;
58661;SDS011;44432;49.786;22.760;2023-05-10T00:21:10;20.70;;;11.70;;
58661;SDS011;44432;49.786;22.760;2023-05-10T00:23:40;22.40;;;12.20;;
58661;SDS011;44432;49.786;22.760;2023-05-10T00:26:11;22.20;;;12.10;;
58661;SDS011;44432;49.786;22.760;2023-05-10T00:28:42;23.10;;;12.60;;
58661;SDS011;44432;49.786;22.760;2023-05-10T00:31:13;22.30;;;12.10;;
58661;SDS011;44432;49.786;22.760;2023-05-10T00:33:43;22.60;;;11.20;;
58661;SDS011;44432;49.786;22.760;2023-05-10T00:36:14;20.20;;;11.70;;
58661;SDS011;44432;49.786;22.760;2023-05-10T00:38:44;20.00;;;11.90;;
58661;SDS011;44432;49.786;22.760;2023-05-10T00:41:15;20.10;;;11.20;;
58661;SDS011;44432;49.786;22.760;2023-05-10T00:43:46;21.00;;;11.30;;
58661;SDS011;44432;49.786;22.760;2023-05-10T00:46:17;16.40;;;10.50;;
58661;SDS011;44432;49.786;22.760;2023-05-10T00:48:47;18.40;;;10.60;;
58661;SDS011;44432;49.786;22.760;2023-05-10T00:51:18;18.30;;;10.70;;
58661;SDS011;44432;49.786;22.760;2023-05-10T00:53:49;19.80;;;10.80;;
58661;SDS011;44432;49.786;22.760;2023-05-10T00:56:20;17.10;;;10.20;;
58661;SDS011;44432;49.786;22.760;2023-05-10T00:58:52;21.20;;;10.50;;
58661;SDS011;44432;49.786;22.760;2023-05-10T01:01:22;17.20;;;10.10;;
58661;SDS011;44432;49.786;22.760;2023-05-10T01:03:53;14.90;;;9.30;;
58661;SDS011;44432;49.786;22.760;2023-05-10T01:06:24;17.10;;;10.40;;
58661;SDS011;44432;49.786;22.760;2023-05-10T01:08:55;17.50;;;11.40;;
58661;SDS011;44432;49.786;22.760;2023-05-10T01:11:26;18.70;;;10.30;;
58661;SDS011;44432;49.786;22.760;2023-05-10T01:13:57;15.50;;;9.70;;
58661;SDS011;44432;49.786;22.760;2023-05-10T01:16:28;16.90;;;8.70;;
58661;SDS011;44432;49.786;22.760;2023-05-10T01:19:01;15.40;;;10.00;;
58661;SDS011;44432;49.786;22.760;2023-05-10T01:21:36;16.10;;;8.70;;
58661;SDS011;44432;49.786;22.760;2023-05-10T01:27:19;15.40;;;8.80;;
58661;SDS011;44432;49.786;22.760;2023-05-10T01:30:02;14.60;;;8.30;;
58661;SDS011;44432;49.786;22.760;2023-05-10T01:32:41;14.20;;;8.60;;
58661;SDS011;44432;49.786;22.760;2023-05-10T01:35:19;13.50;;;7.90;;
58661;SDS011;44432;49.786;22.760;2023-05-10T01:38:11;13.30;;;7.80;;
58661;SDS011;44432;49.786;22.760;2023-05-10T01:43:41;15.00;;;8.30;;
58661;SDS011;44432;49.786;22.760;2023-05-10T01:46:18;15.30;;;8.40;;
58661;SDS011;44432;49.786;22.760;2023-05-10T01:48:54;14.30;;;8.10;;
58661;SDS011;44432;49.786;22.760;2023-05-10T01:51:29;13.30;;;8.90;;
58661;SDS011;44432;49.786;22.760;2023-05-10T01:54:05;14.10;;;7.90;;
58661;SDS011;44432;49.786;22.760;2023-05-10T01:56:37;15.50;;;8.30;;
58661;SDS011;44432;49.786;22.760;2023-05-10T01:59:11;12.80;;;7.80;;
58661;SDS011;44432;49.786;22.760;2023-05-10T02:01:45;15.30;;;7.70;;
58661;SDS011;44432;49.786;22.760;2023-05-10T02:04:18;14.70;;;7.80;;
58661;SDS011;44432;49.786;22.760;2023-05-10T02:06:50;13.50;;;8.40;;
58661;SDS011;44432;49.786;22.760;2023-05-10T02:09:22;19.10;;;8.70;;
58661;SDS011;44432;49.786;22.760;2023-05-10T02:11:56;16.70;;;8.50;;
58661;SDS011;44432;49.786;22.760;2023-05-10T02:14:28;16.80;;;7.80;;
58661;SDS011;44432;49.786;22.760;2023-05-10T02:17:01;16.50;;;8.70;;
58661;SDS011;44432;49.786;22.760;2023-05-10T02:19:34;10.40;;;6.80;;
58661;SDS011;44432;49.786;22.760;2023-05-10T02:22:07;14.60;;;8.50;;
58661;SDS011;44432;49.786;22.760;2023-05-10T02:24:39;15.00;;;8.00;;
58661;SDS011;44432;49.786;22.760;2023-05-10T02:27:10;14.90;;;8.80;;
58661;SDS011;44432;49.786;22.760;2023-05-10T02:29:42;15.70;;;9.70;;
58661;SDS011;44432;49.786;22.760;2023-05-10T02:32:15;16.20;;;9.90;;
58661;SDS011;44432;49.786;22.760;2023-05-10T02:34:47;14.60;;;9.20;;
58661;SDS011;44432;49.786;22.760;2023-05-10T02:37:19;14.90;;;9.50;;
58661;SDS011;44432;49.786;22.760;2023-05-10T02:39:52;16.30;;;9.60;;
58661;SDS011;44432;49.786;22.760;2023-05-10T02:42:26;12.50;;;8.20;;
58661;SDS011;44432;49.786;22.760;2023-05-10T02:44:59;15.40;;;8.90;;
58661;SDS011;44432;49.786;22.760;2023-05-10T02:50:00;14.20;;;8.10;;
58661;SDS011;44432;49.786;22.760;2023-05-10T02:52:36;15.30;;;8.50;;
58661;SDS011;44432;49.786;22.760;2023-05-10T02:55:12;14.30;;;8.30;;
58661;SDS011;44432;49.786;22.760;2023-05-10T02:57:46;13.90;;;8.00;;
58661;SDS011;44432;49.786;22.760;2023-05-10T03:00:21;17.20;;;9.20;;
58661;SDS011;44432;49.786;22.760;2023-05-10T03:02:53;13.80;;;8.90;;
58661;SDS011;44432;49.786;22.760;2023-05-10T03:05:24;15.80;;;9.10;;
58661;SDS011;44432;49.786;22.760;2023-05-10T03:07:54;17.80;;;8.60;;
58661;SDS011;44432;49.786;22.760;2023-05-10T03:10:26;14.30;;;8.60;;
58661;SDS011;44432;49.786;22.760;2023-05-10T03:13:05;19.60;;;8.50;;
58661;SDS011;44432;49.786;22.760;2023-05-10T03:15:47;17.70;;;8.90;;
58661;SDS011;44432;49.786;22.760;2023-05-10T03:18:28;15.30;;;8.30;;
58661;SDS011;44432;49.786;22.760;2023-05-10T03:21:03;16.60;;;8.50;;
58661;SDS011;44432;49.786;22.760;2023-05-10T03:23:39;13.10;;;8.20;;
58661;SDS011;44432;49.786;22.760;2023-05-10T03:26:15;14.30;;;8.10;;
58661;SDS011;44432;49.786;22.760;2023-05-10T03:28:51;15.40;;;8.50;;
58661;SDS011;44432;49.786;22.760;2023-05-10T03:31:23;17.40;;;7.90;;
58661;SDS011;44432;49.786;22.760;2023-05-10T03:33:54;15.60;;;8.50;;
58661;SDS011;44432;49.786;22.760;2023-05-10T03:36:25;14.00;;;8.20;;
58661;SDS011;44432;49.786;22.760;2023-05-10T03:38:55;14.70;;;8.40;;
58661;SDS011;44432;49.786;22.760;2023-05-10T03:41:26;18.10;;;9.30;;
58661;SDS011;44432;49.786;22.760;2023-05-10T03:43:57;23.10;;;11.60;;
58661;SDS011;44432;49.786;22.760;2023-05-10T03:46:28;12.90;;;8.50;;
58661;SDS011;44432;49.786;22.760;2023-05-10T03:48:58;16.10;;;8.90;;
58661;SDS011;44432;49.786;22.760;2023-05-10T03:51:29;14.60;;;8.90;;
58661;SDS011;44432;49.786;22.760;2023-05-10T03:54:00;13.20;;;8.90;;
58661;SDS011;44432;49.786;22.760;2023-05-10T03:56:30;13.50;;;7.80;;
58661;SDS011;44432;49.786;22.760;2023-05-10T03:59:01;15.10;;;9.10;;
58661;SDS011;44432;49.786;22.760;2023-05-10T04:01:34;16.40;;;8.90;;
58661;SDS011;44432;49.786;22.760;2023-05-10T04:04:05;16.70;;;9.80;;
58661;SDS011;44432;49.786;22.760;2023-05-10T04:06:37;14.00;;;8.30;;
58661;SDS011;44432;49.786;22.760;2023-05-10T04:09:08;13.40;;;7.90;;
58661;SDS011;44432;49.786;22.760;2023-05-10T04:11:38;14.10;;;8.40;;
58661;SDS011;44432;49.786;22.760;2023-05-10T04:14:09;14.80;;;8.80;;
58661;SDS011;44432;49.786;22.760;2023-05-10T04:16:40;15.40;;;8.90;;
58661;SDS011;44432;49.786;22.760;2023-05-10T04:19:10;24.50;;;9.80;;
58661;SDS011;44432;49.786;22.760;2023-05-10T04:21:41;16.90;;;9.90;;
58661;SDS011;44432;49.786;22.760;2023-05-10T04:24:11;17.10;;;9.00;;
58661;SDS011;44432;49.786;22.760;2023-05-10T04:26:42;13.20;;;9.10;;
58661;SDS011;44432;49.786;22.760;2023-05-10T04:29:13;14.00;;;9.30;;
58661;SDS011;44432;49.786;22.760;2023-05-10T04:31:43;14.40;;;9.30;;
58661;SDS011;44432;49.786;22.760;2023-05-10T04:34:14;14.30;;;8.70;;
58661;SDS011;44432;49.786;22.760;2023-05-10T04:36:44;15.30;;;9.50;;
58661;SDS011;44432;49.786;22.760;2023-05-10T04:39:15;13.90;;;9.40;;
58661;SDS011;44432;49.786;22.760;2023-05-10T04:41:45;12.20;;;8.00;;
58661;SDS011;44432;49.786;22.760;2023-05-10T04:44:16;15.30;;;9.00;;
58661;SDS011;44432;49.786;22.760;2023-05-10T04:46:47;16.00;;;8.40;;
58661;SDS011;44432;49.786;22.760;2023-05-10T04:49:17;10.90;;;6.90;;
58661;SDS011;44432;49.786;22.760;2023-05-10T04:51:48;11.30;;;7.50;;
58661;SDS011;44432;49.786;22.760;2023-05-10T04:54:19;11.20;;;7.30;;
58661;SDS011;44432;49.786;22.760;2023-05-10T04:56:49;14.60;;;7.10;;
58661;SDS011;44432;49.786;22.760;2023-05-10T04:59:20;12.50;;;7.00;;
58661;SDS011;44432;49.786;22.760;2023-05-10T05:01:50;11.10;;;7.00;;
58661;SDS011;44432;49.786;22.760;2023-05-10T05:04:21;10.20;;;6.80;;
58661;SDS011;44432;49.786;22.760;2023-05-10T05:06:52;12.20;;;6.10;;
58661;SDS011;44432;49.786;22.760;2023-05-10T05:09:22;13.50;;;6.20;;
58661;SDS011;44432;49.786;22.760;2023-05-10T05:11:53;11.10;;;6.40;;
58661;SDS011;44432;49.786;22.760;2023-05-10T05:14:24;15.90;;;9.30;;
58661;SDS011;44432;49.786;22.760;2023-05-10T05:16:54;10.40;;;7.10;;
58661;SDS011;44432;49.786;22.760;2023-05-10T05:19:25;13.10;;;6.90;;
58661;SDS011;44432;49.786;22.760;2023-05-10T05:21:56;10.00;;;7.50;;
58661;SDS011;44432;49.786;22.760;2023-05-10T05:24:26;9.30;;;6.30;;
58661;SDS011;44432;49.786;22.760;2023-05-10T05:26:57;11.70;;;6.80;;
58661;SDS011;44432;49.786;22.760;2023-05-10T05:29:28;16.20;;;6.80;;
58661;SDS011;44432;49.786;22.760;2023-05-10T05:31:59;9.50;;;6.50;;
58661;SDS011;44432;49.786;22.760;2023-05-10T05:34:29;8.80;;;6.10;;
58661;SDS011;44432;49.786;22.760;2023-05-10T05:37:00;11.70;;;6.30;;
58661;SDS011;44432;49.786;22.760;2023-05-10T05:39:31;14.00;;;6.70;;
58661;SDS011;44432;49.786;22.760;2023-05-10T05:42:01;9.90;;;6.50;;
58661;SDS011;44432;49.786;22.760;2023-05-10T05:44:32;11.40;;;6.30;;
58661;SDS011;44432;49.786;22.760;2023-05-10T05:47:03;10.90;;;6.50;;
58661;SDS011;44432;49.786;22.760;2023-05-10T05:49:34;11.70;;;6.90;;
58661;SDS011;44432;49.786;22.760;2023-05-10T05:52:05;16.00;;;6.50;;
58661;SDS011;44432;49.786;22.760;2023-05-10T05:54:35;11.20;;;6.20;;
58661;SDS011;44432;49.786;22.760;2023-05-10T05:57:06;15.10;;;7.20;;
58661;SDS011;44432;49.786;22.760;2023-05-10T05:59:36;12.90;;;6.20;;
58661;SDS011;44432;49.786;22.760;2023-05-10T06:02:09;9.70;;;6.10;;
58661;SDS011;44432;49.786;22.760;2023-05-10T06:04:40;8.50;;;5.30;;
58661;SDS011;44432;49.786;22.760;2023-05-10T06:07:11;9.20;;;5.40;;
58661;SDS011;44432;49.786;22.760;2023-05-10T06:09:41;9.40;;;6.10;;
58661;SDS011;44432;49.786;22.760;2023-05-10T06:12:12;9.40;;;5.70;;
58661;SDS011;44432;49.786;22.760;2023-05-10T06:14:42;8.60;;;5.60;;
58661;SDS011;44432;49.786;22.760;2023-05-10T06:17:13;9.30;;;5.40;;
58661;SDS011;44432;49.786;22.760;2023-05-10T06:19:44;9.70;;;5.60;;
58661;SDS011;44432;49.786;22.760;2023-05-10T06:22:14;8.20;;;5.30;;
58661;SDS011;44432;49.786;22.760;2023-05-10T06:24:45;9.60;;;5.20;;
58661;SDS011;44432;49.786;22.760;2023-05-10T06:27:15;8.90;;;5.80;;
58661;SDS011;44432;49.786;22.760;2023-05-10T06:29:46;13.30;;;5.90;;
58661;SDS011;44432;49.786;22.760;2023-05-10T06:32:16;11.20;;;5.90;;
58661;SDS011;44432;49.786;22.760;2023-05-10T06:34:47;9.30;;;5.40;;
58661;SDS011;44432;49.786;22.760;2023-05-10T06:37:18;11.90;;;5.60;;
58661;SDS011;44432;49.786;22.760;2023-05-10T06:39:49;10.50;;;5.90;;
58661;SDS011;44432;49.786;22.760;2023-05-10T06:42:19;13.40;;;5.40;;
58661;SDS011;44432;49.786;22.760;2023-05-10T06:44:51;8.10;;;5.20;;
58661;SDS011;44432;49.786;22.760;2023-05-10T06:47:22;9.30;;;5.30;;
58661;SDS011;44432;49.786;22.760;2023-05-10T06:49:52;11.00;;;5.90;;
58661;SDS011;44432;49.786;22.760;2023-05-10T06:52:23;12.50;;;6.00;;
58661;SDS011;44432;49.786;22.760;2023-05-10T06:54:54;10.70;;;5.20;;
58661;SDS011;44432;49.786;22.760;2023-05-10T06:57:25;10.50;;;5.20;;
58661;SDS011;44432;49.786;22.760;2023-05-10T06:59:55;11.40;;;5.30;;
58661;SDS011;44432;49.786;22.760;2023-05-10T07:02:26;11.40;;;5.20;;
58661;SDS011;44432;49.786;22.760;2023-05-10T07:04:57;9.00;;;5.20;;
58661;SDS011;44432;49.786;22.760;2023-05-10T07:07:27;6.80;;;4.20;;
58661;SDS011;44432;49.786;22.760;2023-05-10T07:09:59;10.30;;;4.80;;
58661;SDS011;44432;49.786;22.760;2023-05-10T07:12:29;8.30;;;3.90;;
58661;SDS011;44432;49.786;22.760;2023-05-10T07:15:00;10.10;;;4.20;;
58661;SDS011;44432;49.786;22.760;2023-05-10T07:17:30;6.50;;;3.40;;
58661;SDS011;44432;49.786;22.760;2023-05-10T07:20:02;6.50;;;4.70;;
58661;SDS011;44432;49.786;22.760;2023-05-10T07:22:33;6.70;;;3.30;;
58661;SDS011;44432;49.786;22.760;2023-05-10T07:25:05;7.50;;;3.40;;
58661;SDS011;44432;49.786;22.760;2023-05-10T07:27:36;6.50;;;3.70;;
58661;SDS011;44432;49.786;22.760;2023-05-10T07:30:08;7.50;;;3.20;;
58661;SDS011;44432;49.786;22.760;2023-05-10T07:32:39;4.70;;;2.90;;
58661;SDS011;44432;49.786;22.760;2023-05-10T07:35:10;10.10;;;3.40;;
58661;SDS011;44432;49.786;22.760;2023-05-10T07:37:41;9.30;;;3.30;;
58661;SDS011;44432;49.786;22.760;2023-05-10T07:40:11;16.20;;;3.40;;
58661;SDS011;44432;49.786;22.760;2023-05-10T07:42:42;11.70;;;3.20;;
58661;SDS011;44432;49.786;22.760;2023-05-10T07:45:13;7.30;;;3.00;;
58661;SDS011;44432;49.786;22.760;2023-05-10T07:47:43;5.10;;;3.10;;
58661;SDS011;44432;49.786;22.760;2023-05-10T07:50:14;11.70;;;3.70;;
58661;SDS011;44432;49.786;22.760;2023-05-10T07:52:45;6.40;;;3.00;;
58661;SDS011;44432;49.786;22.760;2023-05-10T07:55:16;8.40;;;3.30;;
58661;SDS011;44432;49.786;22.760;2023-05-10T07:57:48;7.80;;;3.50;;
58661;SDS011;44432;49.786;22.760;2023-05-10T08:00:19;9.90;;;4.20;;
58661;SDS011;44432;49.786;22.760;2023-05-10T08:02:50;7.20;;;3.30;;
58661;SDS011;44432;49.786;22.760;2023-05-10T08:05:21;6.90;;;3.40;;
58661;SDS011;44432;49.786;22.760;2023-05-10T08:07:51;7.50;;;3.30;;
58661;SDS011;44432;49.786;22.760;2023-05-10T08:10:22;7.40;;;3.00;;
58661;SDS011;44432;49.786;22.760;2023-05-10T08:12:53;5.90;;;2.70;;
58661;SDS011;44432;49.786;22.760;2023-05-10T08:15:23;8.30;;;3.10;;
58661;SDS011;44432;49.786;22.760;2023-05-10T08:17:54;8.50;;;3.30;;
58661;SDS011;44432;49.786;22.760;2023-05-10T08:20:24;6.00;;;2.90;;
58661;SDS011;44432;49.786;22.760;2023-05-10T08:22:55;5.80;;;2.80;;
58661;SDS011;44432;49.786;22.760;2023-05-10T08:25:26;8.60;;;2.80;;
58661;SDS011;44432;49.786;22.760;2023-05-10T08:27:57;6.40;;;3.10;;
58661;SDS011;44432;49.786;22.760;2023-05-10T08:30:27;5.50;;;3.00;;
58661;SDS011;44432;49.786;22.760;2023-05-10T08:32:58;6.30;;;2.80;;
58661;SDS011;44432;49.786;22.760;2023-05-10T08:35:28;8.30;;;3.10;;
58661;SDS011;44432;49.786;22.760;2023-05-10T08:38:02;6.90;;;2.70;;
58661;SDS011;44432;49.786;22.760;2023-05-10T08:40:33;5.70;;;2.90;;
58661;SDS011;44432;49.786;22.760;2023-05-10T08:43:05;9.60;;;3.10;;
58661;SDS011;44432;49.786;22.760;2023-05-10T08:45:38;8.30;;;3.70;;
58661;SDS011;44432;49.786;22.760;2023-05-10T08:48:10;10.70;;;3.20;;
58661;SDS011;44432;49.786;22.760;2023-05-10T08:50:43;9.10;;;3.00;;
58661;SDS011;44432;49.786;22.760;2023-05-10T08:53:17;8.30;;;3.20;;
58661;SDS011;44432;49.786;22.760;2023-05-10T08:55:50;6.10;;;2.60;;
58661;SDS011;44432;49.786;22.760;2023-05-10T08:58:21;8.10;;;3.20;;
58661;SDS011;44432;49.786;22.760;2023-05-10T09:00:51;9.80;;;3.10;;
58661;SDS011;44432;49.786;22.760;2023-05-10T09:03:23;13.90;;;5.90;;
58661;SDS011;44432;49.786;22.760;2023-05-10T09:05:54;5.80;;;3.00;;
58661;SDS011;44432;49.786;22.760;2023-05-10T09:08:24;9.10;;;3.60;;
58661;SDS011;44432;49.786;22.760;2023-05-10T09:10:55;5.90;;;2.60;;
58661;SDS011;44432;49.786;22.760;2023-05-10T09:13:26;4.60;;;2.60;;
58661;SDS011;44432;49.786;22.760;2023-05-10T09:15:58;6.20;;;2.40;;
58661;SDS011;44432;49.786;22.760;2023-05-10T09:18:30;4.50;;;2.60;;
58661;SDS011;44432;49.786;22.760;2023-05-10T09:21:00;5.40;;;2.70;;
58661;SDS011;44432;49.786;22.760;2023-05-10T09:23:31;5.40;;;3.10;;
58661;SDS011;44432;49.786;22.760;2023-05-10T09:26:05;6.40;;;2.70;;
58661;SDS011;44432;49.786;22.760;2023-05-10T09:28:49;5.70;;;3.20;;
58661;SDS011;44432;49.786;22.760;2023-05-10T09:31:21;6.80;;;2.80;;
58661;SDS011;44432;49.786;22.760;2023-05-10T09:33:52;5.00;;;3.20;;
58661;SDS011;44432;49.786;22.760;2023-05-10T09:36:23;11.50;;;2.90;;
58661;SDS011;44432;49.786;22.760;2023-05-10T09:38:54;3.60;;;2.40;;
58661;SDS011;44432;49.786;22.760;2023-05-10T09:41:26;4.80;;;2.70;;
58661;SDS011;44432;49.786;22.760;2023-05-10T09:43:57;4.70;;;2.50;;
58661;SDS011;44432;49.786;22.760;2023-05-10T09:46:28;7.20;;;2.70;;
58661;SDS011;44432;49.786;22.760;2023-05-10T09:49:03;5.60;;;2.30;;
58661;SDS011;44432;49.786;22.760;2023-05-10T09:51:35;4.70;;;2.90;;
58661;SDS011;44432;49.786;22.760;2023-05-10T09:54:12;5.90;;;2.70;;
58661;SDS011;44432;49.786;22.760;2023-05-10T09:56:44;4.30;;;2.60;;
58661;SDS011;44432;49.786;22.760;2023-05-10T09:59:14;6.70;;;2.70;;
58661;SDS011;44432;49.786;22.760;2023-05-10T10:01:50;8.10;;;3.00;;
58661;SDS011;44432;49.786;22.760;2023-05-10T10:04:21;3.50;;;2.40;;
58661;SDS011;44432;49.786;22.760;2023-05-10T10:07:01;8.10;;;2.70;;
58661;SDS011;44432;49.786;22.760;2023-05-10T10:09:33;7.50;;;3.00;;
58661;SDS011;44432;49.786;22.760;2023-05-10T10:12:05;8.40;;;3.20;;
58661;SDS011;44432;49.786;22.760;2023-05-10T10:14:36;7.50;;;2.50;;
58661;SDS011;44432;49.786;22.760;2023-05-10T10:17:07;4.90;;;2.60;;
58661;SDS011;44432;49.786;22.760;2023-05-10T10:19:39;3.80;;;2.50;;
58661;SDS011;44432;49.786;22.760;2023-05-10T10:22:10;4.10;;;2.40;;
58661;SDS011;44432;49.786;22.760;2023-05-10T10:24:41;5.90;;;2.50;;
58661;SDS011;44432;49.786;22.760;2023-05-10T10:27:14;10.00;;;2.50;;
58661;SDS011;44432;49.786;22.760;2023-05-10T10:29:52;4.70;;;2.90;;
58661;SDS011;44432;49.786;22.760;2023-05-10T10:32:35;10.10;;;2.90;;
58661;SDS011;44432;49.786;22.760;2023-05-10T10:35:15;5.30;;;2.60;;
58661;SDS011;44432;49.786;22.760;2023-05-10T10:37:47;5.20;;;2.40;;
58661;SDS011;44432;49.786;22.760;2023-05-10T10:40:26;4.50;;;2.50;;
58661;SDS011;44432;49.786;22.760;2023-05-10T10:42:58;7.40;;;2.50;;
58661;SDS011;44432;49.786;22.760;2023-05-10T10:45:43;6.50;;;2.00;;
58661;SDS011;44432;49.786;22.760;2023-05-10T10:51:06;8.50;;;2.50;;
58661;SDS011;44432;49.786;22.760;2023-05-10T10:53:38;6.10;;;2.20;;
58661;SDS011;44432;49.786;22.760;2023-05-10T10:56:10;4.80;;;2.30;;
58661;SDS011;44432;49.786;22.760;2023-05-10T10:58:48;4.90;;;2.50;;
58661;SDS011;44432;49.786;22.760;2023-05-10T11:01:21;6.20;;;2.50;;
58661;SDS011;44432;49.786;22.760;2023-05-10T11:06:48;6.00;;;2.50;;
58661;SDS011;44432;49.786;22.760;2023-05-10T11:09:19;6.70;;;2.50;;
58661;SDS011;44432;49.786;22.760;2023-05-10T11:11:53;7.90;;;2.70;;
58661;SDS011;44432;49.786;22.760;2023-05-10T11:14:27;5.40;;;2.30;;
58661;SDS011;44432;49.786;22.760;2023-05-10T11:17:00;5.80;;;2.50;;
58661;SDS011;44432;49.786;22.760;2023-05-10T11:20:09;9.60;;;3.20;;
58661;SDS011;44432;49.786;22.760;2023-05-10T11:22:52;7.20;;;2.80;;
58661;SDS011;44432;49.786;22.760;2023-05-10T11:25:27;5.50;;;2.30;;
58661;SDS011;44432;49.786;22.760;2023-05-10T11:27:57;9.20;;;2.70;;
58661;SDS011;44432;49.786;22.760;2023-05-10T11:30:33;7.50;;;2.10;;
58661;SDS011;44432;49.786;22.760;2023-05-10T11:33:04;5.20;;;2.30;;
58661;SDS011;44432;49.786;22.760;2023-05-10T11:35:39;3.50;;;2.10;;
58661;SDS011;44432;49.786;22.760;2023-05-10T11:38:10;5.00;;;2.30;;
58661;SDS011;44432;49.786;22.760;2023-05-10T11:40:41;11.00;;;2.70;;
58661;SDS011;44432;49.786;22.760;2023-05-10T11:43:12;8.20;;;2.10;;
58661;SDS011;44432;49.786;22.760;2023-05-10T11:45:43;4.50;;;2.20;;
58661;SDS011;44432;49.786;22.760;2023-05-10T11:48:15;9.40;;;3.90;;
58661;SDS011;44432;49.786;22.760;2023-05-10T11:50:49;6.50;;;2.60;;
58661;SDS011;44432;49.786;22.760;2023-05-10T11:53:23;10.10;;;2.40;;
58661;SDS011;44432;49.786;22.760;2023-05-10T11:58:31;8.10;;;2.40;;
58661;SDS011;44432;49.786;22.760;2023-05-10T12:01:03;4.70;;;2.10;;
58661;SDS011;44432;49.786;22.760;2023-05-10T12:03:35;6.40;;;2.40;;
58661;SDS011;44432;49.786;22.760;2023-05-10T12:06:06;4.60;;;2.20;;
58661;SDS011;44432;49.786;22.760;2023-05-10T12:08:37;3.80;;;2.30;;
58661;SDS011;44432;49.786;22.760;2023-05-10T12:11:15;5.20;;;2.30;;
58661;SDS011;44432;49.786;22.760;2023-05-10T12:13:45;6.50;;;2.20;;
58661;SDS011;44432;49.786;22.760;2023-05-10T12:16:18;8.60;;;2.50;;
58661;SDS011;44432;49.786;22.760;2023-05-10T12:18:49;6.00;;;2.40;;
58661;SDS011;44432;49.786;22.760;2023-05-10T12:21:21;8.90;;;2.40;;
58661;SDS011;44432;49.786;22.760;2023-05-10T12:23:52;3.20;;;2.30;;
58661;SDS011;44432;49.786;22.760;2023-05-10T12:26:29;3.60;;;2.40;;
58661;SDS011;44432;49.786;22.760;2023-05-10T12:29:12;7.30;;;3.20;;
58661;SDS011;44432;49.786;22.760;2023-05-10T12:31:51;5.80;;;2.70;;
58661;SDS011;44432;49.786;22.760;2023-05-10T12:34:27;7.40;;;2.70;;
58661;SDS011;44432;49.786;22.760;2023-05-10T12:37:01;5.70;;;2.10;;
58661;SDS011;44432;49.786;22.760;2023-05-10T12:39:39;6.90;;;2.60;;
58661;SDS011;44432;49.786;22.760;2023-05-10T12:42:11;8.10;;;2.30;;
58661;SDS011;44432;49.786;22.760;2023-05-10T12:44:42;3.90;;;2.20;;
58661;SDS011;44432;49.786;22.760;2023-05-10T12:47:12;3.80;;;2.20;;
58661;SDS011;44432;49.786;22.760;2023-05-10T12:49:43;4.80;;;2.10;;
58661;SDS011;44432;49.786;22.760;2023-05-10T12:52:14;4.30;;;2.10;;
58661;SDS011;44432;49.786;22.760;2023-05-10T12:54:44;5.60;;;1.80;;
58661;SDS011;44432;49.786;22.760;2023-05-10T12:57:15;6.00;;;2.40;;
58661;SDS011;44432;49.786;22.760;2023-05-10T12:59:46;4.90;;;2.20;;
58661;SDS011;44432;49.786;22.760;2023-05-10T13:02:16;6.60;;;2.60;;
58661;SDS011;44432;49.786;22.760;2023-05-10T13:04:47;4.20;;;2.00;;
58661;SDS011;44432;49.786;22.760;2023-05-10T13:07:18;3.60;;;2.00;;
58661;SDS011;44432;49.786;22.760;2023-05-10T13:09:49;8.90;;;2.30;;
58661;SDS011;44432;49.786;22.760;2023-05-10T13:12:19;6.10;;;1.90;;
58661;SDS011;44432;49.786;22.760;2023-05-10T13:14:50;5.40;;;2.20;;
58661;SDS011;44432;49.786;22.760;2023-05-10T13:17:21;7.60;;;2.40;;
58661;SDS011;44432;49.786;22.760;2023-05-10T13:19:51;5.90;;;2.00;;
58661;SDS011;44432;49.786;22.760;2023-05-10T13:22:22;5.80;;;2.00;;
58661;SDS011;44432;49.786;22.760;2023-05-10T13:24:53;5.60;;;2.00;;
58661;SDS011;44432;49.786;22.760;2023-05-10T13:27:23;6.70;;;1.90;;
58661;SDS011;44432;49.786;22.760;2023-05-10T13:29:54;5.50;;;1.90;;
58661;SDS011;44432;49.786;22.760;2023-05-10T13:32:26;5.10;;;2.20;;
58661;SDS011;44432;49.786;22.760;2023-05-10T13:34:57;9.60;;;2.20;;
58661;SDS011;44432;49.786;22.760;2023-05-10T13:37:28;4.20;;;1.90;;
58661;SDS011;44432;49.786;22.760;2023-05-10T13:39:58;8.20;;;2.50;;
58661;SDS011;44432;49.786;22.760;2023-05-10T13:42:29;5.50;;;2.00;;
58661;SDS011;44432;49.786;22.760;2023-05-10T13:45:01;3.10;;;1.90;;
58661;SDS011;44432;49.786;22.760;2023-05-10T13:47:32;4.80;;;1.90;;
58661;SDS011;44432;49.786;22.760;2023-05-10T13:50:03;4.80;;;1.90;;
58661;SDS011;44432;49.786;22.760;2023-05-10T13:52:34;5.30;;;1.90;;
58661;SDS011;44432;49.786;22.760;2023-05-10T13:55:05;3.70;;;2.10;;
58661;SDS011;44432;49.786;22.760;2023-05-10T13:57:37;5.80;;;2.20;;
58661;SDS011;44432;49.786;22.760;2023-05-10T14:00:09;8.10;;;2.10;;
58661;SDS011;44432;49.786;22.760;2023-05-10T14:02:41;4.80;;;2.00;;
58661;SDS011;44432;49.786;22.760;2023-05-10T14:05:13;3.20;;;1.70;;
58661;SDS011;44432;49.786;22.760;2023-05-10T14:07:44;7.10;;;2.90;;
58661;SDS011;44432;49.786;22.760;2023-05-10T14:10:16;5.90;;;2.40;;
58661;SDS011;44432;49.786;22.760;2023-05-10T14:12:48;7.20;;;2.30;;
58661;SDS011;44432;49.786;22.760;2023-05-10T14:15:19;10.80;;;2.20;;
58661;SDS011;44432;49.786;22.760;2023-05-10T14:17:50;9.00;;;2.10;;
58661;SDS011;44432;49.786;22.760;2023-05-10T14:20:21;5.70;;;2.30;;
58661;SDS011;44432;49.786;22.760;2023-05-10T14:22:52;9.70;;;2.40;;
58661;SDS011;44432;49.786;22.760;2023-05-10T14:25:23;5.40;;;2.00;;
58661;SDS011;44432;49.786;22.760;2023-05-10T14:27:53;4.10;;;1.90;;
58661;SDS011;44432;49.786;22.760;2023-05-10T14:30:24;4.80;;;2.00;;
58661;SDS011;44432;49.786;22.760;2023-05-10T14:32:54;5.30;;;2.20;;
58661;SDS011;44432;49.786;22.760;2023-05-10T14:35:26;9.50;;;2.40;;
58661;SDS011;44432;49.786;22.760;2023-05-10T14:37:58;6.00;;;1.70;;
58661;SDS011;44432;49.786;22.760;2023-05-10T14:40:29;7.80;;;2.40;;
58661;SDS011;44432;49.786;22.760;2023-05-10T14:43:00;4.60;;;2.40;;
58661;SDS011;44432;49.786;22.760;2023-05-10T14:45:31;4.10;;;2.20;;
58661;SDS011;44432;49.786;22.760;2023-05-10T14:48:01;7.40;;;2.10;;
58661;SDS011;44432;49.786;22.760;2023-05-10T14:50:33;6.10;;;1.80;;
58661;SDS011;44432;49.786;22.760;2023-05-10T14:56:06;4.30;;;1.70;;
58661;SDS011;44432;49.786;22.760;2023-05-10T14:58:37;5.70;;;1.90;;
58661;SDS011;44432;49.786;22.760;2023-05-10T15:01:09;5.90;;;1.90;;
58661;SDS011;44432;49.786;22.760;2023-05-10T15:03:41;6.20;;;2.10;;
58661;SDS011;44432;49.786;22.760;2023-05-10T15:06:13;5.80;;;2.50;;
58661;SDS011;44432;49.786;22.760;2023-05-10T15:08:44;6.30;;;1.80;;
58661;SDS011;44432;49.786;22.760;2023-05-10T15:11:16;9.20;;;2.00;;
58661;SDS011;44432;49.786;22.760;2023-05-10T15:13:48;6.20;;;1.80;;
58661;SDS011;44432;49.786;22.760;2023-05-10T15:16:20;5.80;;;1.70;;